Flight Track Log - Related Links

Times and Time Zones

All times are in EDT time to prevent confusion due to time zone crossing. See the N35407 flight status page for this flight to view local times or setup timezone preferences in your user account.

Time Position Orientation Groundspeed Altitude Reporting Facility
EDT Latitude Longitude Course Direction KTS MPH feet Rate Location/Type
Sat 04:27:09 PM 32.7561 -117.3019 281° West 255 293 3,400  Level Los Angeles Center
Sat 04:28:00 PM 32.6125 -117.0519 102° East  Level FlightAware Approximate
Sat 04:28:11 PM 32.6969 -117.3169 192° South 256 295 6,600  Level Los Angeles Center
Sat 04:29:00 PM 32.6050 -116.9123 84° East  Level FlightAware Approximate
Sat 04:29:13 PM 32.6514 -117.2486 128° Southeast 268 308 9,500  Level Los Angeles Center
Sat 04:30:00 PM 32.6167 -116.7716 90° East  Level FlightAware Approximate
Sat 04:30:15 PM 32.6358 -117.1469 100° East 296 341 11,000  Level Los Angeles Center
Sat 04:31:00 PM 32.6334 -116.6329 77° East  Level FlightAware Approximate
Sat 04:31:16 PM 32.6144 -117.0003 100° East 349 402 13,300  Level Los Angeles Center
Sat 04:32:18 PM 32.6211 -116.8658 87° East 391 450 15,500 2,081 Climbing Los Angeles Center
Sat 04:33:20 PM 32.6347 -116.7308 83° East 412 474 17,600 2,081 Climbing Los Angeles Center
Sat 04:34:22 PM 32.6481 -116.5917 83° East 424 488 19,800 1,887 Climbing Los Angeles Center
Sat 04:35:24 PM 32.6611 -116.4497 84° East 434 499 21,500 1,790 Climbing Los Angeles Center
Sat 04:36:26 PM 32.6786 -116.2719 83° East 458 527 23,500 1,707 Climbing Los Angeles Center
Sat 04:37:27 PM 32.6931 -116.1206 83° East 467 537 25,000 1,220 Climbing Los Angeles Center
Sat 04:38:29 PM 32.7047 -115.9967 84° East 473 544 26,000 1,161 Climbing Los Angeles Center
Sat 04:39:31 PM 32.7225 -115.8031 84° East 494 568 27,400 1,645 Climbing Los Angeles Center
Sat 04:40:33 PM 32.7369 -115.6425 84° East 492 566 29,400 1,756 Climbing Los Angeles Center
Sat 04:41:34 PM 32.7497 -115.4861 84° East 482 555 31,000 732 Climbing Los Angeles Center
Sat 04:42:36 PM 32.7531 -115.2958 89° East 482 555 30,900  Descending Los Angeles Center
Sat 04:43:38 PM 32.7600 -115.1361 87° East 484 557 31,000 823 Climbing Los Angeles Center
Sat 04:44:40 PM 32.7625 -114.9794 89° East 476 548 32,600 1,415 Climbing Los Angeles Center
Sat 04:45:41 PM 32.7664 -114.8281 88° East 460 529 33,900 976 Climbing Los Angeles Center
Sat 04:46:43 PM 32.7703 -114.6761 88° East 462 532 34,600 532 Climbing Los Angeles Center
Sat 04:47:45 PM 32.7731 -114.5211 89° East 468 539 35,000 195 Climbing Los Angeles Center
Sat 04:48:46 PM 32.7742 -114.3622 89° East 480 552 35,000 -49 Level Los Angeles Center
Sat 04:49:48 PM 32.7764 -114.1711 89° East 482 555 34,900  Descending Los Angeles Center
Sat 04:50:24 PM 32.7772 -114.0967 89° East 482 555 35,000  Climbing Albuquerque Center
Sat 04:51:26 PM 32.7814 -113.9369 88° East 482 555 34,900  Descending Albuquerque Center
Sat 04:52:28 PM 32.8056 -113.7800 80° East 480 552 35,000 49 Climbing Albuquerque Center
Sat 04:53:29 PM 32.8328 -113.5925 80° East 479 551 35,000  Level Albuquerque Center
Sat 04:54:31 PM 32.8550 -113.4361 80° East 479 551 35,000 -48 Level Albuquerque Center
Sat 04:55:33 PM 32.8756 -113.2803 81° East 475 547 34,900 -49 Descending Albuquerque Center
Sat 04:56:34 PM 32.8975 -113.1244 80° East 475 547 34,900 49 Level Albuquerque Center
Sat 04:57:36 PM 32.9169 -112.9681 82° East 474 545 35,000 49 Climbing Albuquerque Center
Sat 04:58:37 PM 32.9372 -112.8108 81° East 476 548 35,000  Level Albuquerque Center
Sat 04:59:39 PM 32.9508 -112.6533 84° East 477 549 35,000  Level Albuquerque Center
Sat 05:00:41 PM 32.9278 -112.4911 100° East 495 570 35,000  Level Albuquerque Center
Sat 05:01:42 PM 32.9036 -112.3283 100° East 498 573 35,000  Level Albuquerque Center
Sat 05:02:44 PM 32.8750 -112.1392 100° East 498 573 35,000  Level Albuquerque Center
Sat 05:03:45 PM 32.8503 -111.9811 101° East 493 567 35,000  Level Albuquerque Center
Sat 05:05:00 PM 32.8212 -111.7971 101° East  Level FlightAware Approximate
Sat 05:05:49 PM 32.8003 -111.6600 101° East 496 571 35,000  Level Albuquerque Center
Sat 05:06:50 PM 32.7750 -111.5019 101° East 492 566 35,000  Level Albuquerque Center
Sat 05:07:52 PM 32.7503 -111.3444 101° East 488 562 35,000  Level Albuquerque Center
Sat 05:08:54 PM 32.7183 -111.1561 101° East 488 562 35,000  Level Albuquerque Center
Sat 05:09:55 PM 32.6925 -110.9975 101° East 491 565 35,000  Level Albuquerque Center
Sat 05:10:57 PM 32.6661 -110.8372 101° East 495 570 35,000  Level Albuquerque Center
Sat 05:11:59 PM 32.6394 -110.6775 101° East 496 571 35,000  Level Albuquerque Center
Sat 05:13:00 PM 32.6108 -110.5189 102° East 495 570 35,000  Level Albuquerque Center
Sat 05:14:02 PM 32.5847 -110.3581 101° East 498 573 35,000  Level Albuquerque Center
Sat 05:15:04 PM 32.5553 -110.1872 102° East 495 570 35,000  Level Albuquerque Center
Sat 05:16:05 PM 32.5275 -110.0283 102° East 496 571 35,000  Level Albuquerque Center
Sat 05:17:07 PM 32.5003 -109.8717 102° East 493 567 35,000  Level Albuquerque Center
Sat 05:18:08 PM 32.4664 -109.6819 102° East 496 571 35,000  Level Albuquerque Center
Sat 05:19:10 PM 32.4367 -109.5244 103° East 497 572 35,000  Level Albuquerque Center
Sat 05:20:12 PM 32.4092 -109.3697 102° East 491 565 35,000  Level Albuquerque Center
Sat 05:21:14 PM 32.3822 -109.2158 102° East 488 562 35,000  Level Albuquerque Center
Sat 05:22:15 PM 32.3539 -109.0606 102° East 490 564 35,000  Level Albuquerque Center
Sat 05:23:17 PM 32.3192 -108.8767 103° East 487 560 35,000  Level Albuquerque Center
Sat 05:24:18 PM 32.2928 -108.7236 101° East 484 557 35,000  Level Albuquerque Center
Sat 05:25:20 PM 32.2642 -108.5728 103° East 480 552 35,000 -48 Level Albuquerque Center
Sat 05:26:22 PM 32.2358 -108.4200 102° East 479 551 34,900 -49 Descending Albuquerque Center
Sat 05:27:23 PM 32.2067 -108.2667 103° East 480 552 34,900 49 Level Albuquerque Center
Sat 05:28:25 PM 32.1775 -108.1153 103° East 476 548 35,000 49 Climbing Albuquerque Center
Sat 05:29:26 PM 32.1439 -107.9336 102° East 474 545 35,000  Level Albuquerque Center
Sat 05:30:28 PM 32.1153 -107.7825 103° East 475 547 35,000 -48 Level Albuquerque Center
Sat 05:31:30 PM 32.0856 -107.6314 103° East 476 548 34,900 -49 Descending Albuquerque Center
Sat 05:32:31 PM 32.0561 -107.4814 103° East 475 547 34,900  Level Albuquerque Center
Sat 05:33:33 PM 32.0289 -107.3308 102° East 475 547 34,900  Level Albuquerque Center
Sat 05:34:35 PM 31.9992 -107.1808 103° East 474 545 34,900 49 Level Albuquerque Center
Sat 05:35:36 PM 31.9633 -107.0028 103° East 472 543 35,000 49 Climbing Albuquerque Center
Sat 05:36:38 PM 31.9342 -106.8550 103° East 469 540 35,000 -49 Level Albuquerque Center
Sat 05:37:39 PM 31.9042 -106.7089 104° East 465 535 34,900 537 Descending Albuquerque Center
Sat 05:38:41 PM 31.8736 -106.5628 104° East 462 532 36,100 968 Climbing Albuquerque Center
Sat 05:39:43 PM 31.8406 -106.3944 103° East 461 531 36,900 390 Climbing Albuquerque Center
Sat 05:40:44 PM 31.8108 -106.2508 104° East 456 525 36,900  Level Albuquerque Center
Sat 05:41:46 PM 31.7728 -106.1092 108° East 454 522 36,900 49 Level Albuquerque Center
Sat 05:42:47 PM 31.7367 -105.9664 107° East 456 525 37,000  Climbing Albuquerque Center
Sat 05:43:49 PM 31.7003 -105.8231 107° East 457 526 36,900  Descending Albuquerque Center
Sat 05:44:50 PM 31.6644 -105.6800 106° East 457 526 37,000 49 Climbing Albuquerque Center
Sat 05:45:52 PM 31.6278 -105.5342 106° East 465 535 37,000 -49 Level Albuquerque Center
Sat 05:46:53 PM 31.5914 -105.3872 106° East 468 539 36,900 -49 Descending Albuquerque Center
Sat 05:47:55 PM 31.5531 -105.2392 107° East 471 542 36,900 49 Level Albuquerque Center
Sat 05:48:56 PM 31.5081 -105.0597 106° East 475 547 37,000 49 Climbing Albuquerque Center
Sat 05:49:58 PM 31.4697 -104.9081 106° East 479 551 37,000  Level Albuquerque Center
Sat 05:50:59 PM 31.4303 -104.7572 107° East 481 554 37,000 -49 Level Albuquerque Center
Sat 05:52:01 PM 31.3911 -104.6092 107° East 479 551 36,900  Descending Albuquerque Center
Sat 05:53:02 PM 31.3528 -104.4614 107° East 476 548 37,000  Climbing Albuquerque Center
Sat 05:54:04 PM 31.3147 -104.3133 107° East 474 545 36,900  Descending Albuquerque Center
Sat 05:55:05 PM 31.2750 -104.1628 107° East 481 554 37,000 49 Climbing Albuquerque Center
Sat 05:56:07 PM 31.2358 -104.0125 107° East 483 556 37,000 -49 Level Albuquerque Center
Sat 05:57:08 PM 31.1956 -103.8625 107° East 482 555 36,900  Descending Albuquerque Center
Sat 05:58:10 PM 31.1461 -103.6875 108° East 485 558 37,000 49 Climbing Albuquerque Center
Sat 05:59:11 PM 31.1047 -103.5367 108° East 487 560 37,000  Level Albuquerque Center
Sat 06:00:13 PM 31.0631 -103.3858 108° East 489 563 37,000  Level Albuquerque Center
Sat 06:01:14 PM 31.0219 -103.2328 107° East 495 570 37,000 -49 Level Albuquerque Center
Sat 06:02:16 PM 30.9808 -103.0839 108° East 487 560 36,900  Descending Albuquerque Center
Sat 06:03:17 PM 30.9403 -102.9347 108° East 484 557 37,000 49 Climbing Albuquerque Center
Sat 06:04:19 PM 30.8928 -102.7478 106° East 500 575 37,000  Level Albuquerque Center
Sat 06:05:21 PM 30.8528 -102.5933 107° East 503 579 37,000  Level Albuquerque Center
Sat 06:06:22 PM 30.8122 -102.4422 107° East 499 574 37,000  Level Albuquerque Center
Sat 06:07:24 PM 30.7733 -102.2903 107° East 496 571 37,000 -49 Level Albuquerque Center
Sat 06:08:25 PM 30.7333 -102.1392 107° East 495 570 36,900  Descending Albuquerque Center
Sat 06:09:27 PM 30.6922 -101.9869 107° East 495 570 37,000  Climbing Albuquerque Center
Sat 06:10:28 PM 30.6439 -101.8039 107° East 497 572 36,900  Descending Albuquerque Center
Sat 06:12:02 PM 30.5864 -101.5906 107° East 500 575 37,000  Climbing Houston Center
Sat 06:13:04 PM 30.5439 -101.4356 108° East 501 577 36,900 -48 Descending Houston Center
Sat 06:14:06 PM 30.4950 -101.2497 107° East 502 578 36,900 49 Level Houston Center
Sat 06:15:07 PM 30.4553 -101.0975 107° East 500 575 37,000 49 Climbing Houston Center
Sat 06:16:09 PM 30.4128 -100.9456 108° East 497 572 37,000 -48 Level Houston Center
Sat 06:17:11 PM 30.3703 -100.7961 108° East 491 565 36,900 -48 Descending Houston Center
Sat 06:18:13 PM 30.3289 -100.6472 108° East 487 560 36,900 49 Level Houston Center
Sat 06:19:14 PM 30.2878 -100.4994 108° East 484 557 37,000  Climbing Houston Center
Sat 06:20:16 PM 30.2469 -100.3508 108° East 481 554 36,900  Descending Houston Center
Sat 06:21:18 PM 30.2050 -100.1989 108° East 487 560 37,000  Climbing Houston Center
Sat 06:22:19 PM 30.1617 -100.0456 108° East 492 566 36,900 -488 Descending Houston Center
Sat 06:23:21 PM 30.1100 -99.8633 108° East 493 567 36,000 -435 Descending Houston Center
Sat 06:24:23 PM 30.0669 -99.7131 108° East 492 566 36,000  Level Houston Center
Sat 06:25:24 PM 30.0222 -99.5622 109° East 495 570 36,000 -49 Level Houston Center
Sat 06:26:26 PM 29.9794 -99.4111 108° East 498 573 35,900  Descending Houston Center
Sat 06:27:28 PM 29.9367 -99.2600 108° East 497 572 36,000  Climbing Houston Center
Sat 06:28:29 PM 29.8861 -99.1125 112° Southeast 494 568 35,900  Descending Houston Center
Sat 06:29:31 PM 29.8258 -98.9508 113° Southeast 490 564 36,000 48 Climbing Houston Center
Sat 06:30:33 PM 29.7683 -98.7956 113° Southeast 491 565 36,000  Level Houston Center
Sat 06:31:34 PM 29.7150 -98.6525 113° Southeast 487 560 36,000 -49 Level Houston Center
Sat 06:32:36 PM 29.6619 -98.5092 113° Southeast 484 557 35,900 -484 Descending Houston Center
Sat 06:33:38 PM 29.6461 -98.3439 96° East 519 597 35,000 -439 Descending Houston Center
Sat 06:34:39 PM 29.6486 -98.1647 89° East 520 598 35,000  Level Houston Center
Sat 06:35:41 PM 29.6503 -97.9986 89° East 520 598 35,000 -341 Level Houston Center
Sat 06:36:42 PM 29.6525 -97.8300 89° East 521 600 34,300 -829 Descending Houston Center
Sat 06:37:44 PM 29.6547 -97.6550 89° East 523 602 33,300 -1,122 Descending Houston Center
Sat 06:38:45 PM 29.6558 -97.4908 90° East 515 593 32,000 -2,098 Descending Houston Center
Sat 06:39:47 PM 29.6578 -97.3283 89° East 510 587 29,000 -2,683 Descending Houston Center
Sat 06:40:48 PM 29.6592 -97.1675 89° East 505 581 26,500 -2,341 Descending Houston Center
Sat 06:41:50 PM 29.6503 -97.0158 94° East 475 547 24,200 -2,293 Descending Houston Center
Sat 06:42:51 PM 29.6333 -96.8719 98° East 453 521 21,800 -2,293 Descending Houston Center
Sat 06:43:53 PM 29.6164 -96.7339 98° East 435 501 19,500 -2,244 Descending Houston Center
Sat 06:44:54 PM 29.6000 -96.6011 98° East 420 483 17,200 -2,444 Descending Houston Center
Sat 06:45:14 PM 29.5925 -96.5478 99° East 407 468 16,200 -2,226 Descending Houston Center
Sat 06:45:56 PM 29.5842 -96.4750 97° East 400 460 14,900 -2,262 Descending Houston Center
Sat 06:46:15 PM 29.5753 -96.4178 100° East 392 451 13,900 -2,164 Descending Houston Center
Sat 06:46:57 PM 29.5681 -96.3525 97° East 390 449 12,700 -2,164 Descending Houston Center
Sat 06:47:16 PM 29.5608 -96.2969 98° East 378 435 11,700 -2,032 Descending Houston Center
Sat 06:47:59 PM 29.5522 -96.2358 99° East 371 427 10,600 -1,672 Descending Houston Center
Sat 06:48:17 PM 29.5469 -96.1833 97° East 359 413 10,000 -689 Descending Houston Center
Sat 06:49:00 PM 29.5642 -96.1297 70° East 349 402 9,900  Descending Houston Center
Sat 06:49:18 PM 29.5850 -96.0878 60° Northeast 328 377 10,000  Climbing Houston Center
Sat 06:50:02 PM 29.6194 -96.0189 60° Northeast 334 384 9,900  Descending Houston Center
Sat 06:50:19 PM 29.6333 -95.9933 58° Northeast 336 387 10,000 -295 Climbing Houston Center
Sat 06:51:03 PM 29.6653 -95.9336 58° Northeast 336 387 9,600 -736 Descending Houston Center
Sat 06:52:05 PM 29.7367 -95.8764 35° Northeast 312 359 8,700 -1,063 Descending Houston Center
Sat 06:52:22 PM 29.7642 -95.8558 33° Northeast 294 338 8,200 -1,377 Descending Houston Center
Sat 06:53:06 PM 29.8031 -95.8203 38° Northeast 300 345 7,300 -1,279 Descending Houston Center
Sat 06:53:23 PM 29.8258 -95.7933 46° Northeast 290 334 6,900 -484 Descending Houston Center
Sat 06:54:08 PM 29.8592 -95.7583 42° Northeast 282 325 6,800 -509 Descending Houston Center
Sat 06:55:09 PM 29.9067 -95.7061 44° Northeast 245 282 6,000 -923 Descending Houston Center
Sat 06:55:26 PM 29.9272 -95.6828 45° Northeast 219 252 5,600 -1,161 Descending Houston Center
Sat 06:56:11 PM 29.9547 -95.6531 43° Northeast 200 230 4,800 -1,082 Descending Houston Center
Sat 06:56:27 PM 29.9656 -95.6422 41° Northeast 186 214 4,500 -1,082 Descending Houston Center
Sat 06:57:12 PM 29.9917 -95.6100 47° Northeast 190 219 3,700 -1,082 Descending Houston Center
Sat 06:57:28 PM 29.9906 -95.5933 94° East 176 203 3,400 -677 Descending Houston Center
Sat 06:58:14 PM 29.9939 -95.5542 84° East 179 206 3,000 -522 Descending Houston Center

Login

Don't have an account? Register now (free) for customized features, flight alerts, and more!